Main page
METAR-TAF:

METAR-TAF

Airports :

Albert, France

Albert – Picardie Airport

latitude: 49-58-21N, longitude: 002-41-29E, elevation: 111 m

Current weather observation

The report was made 24 minutes ago, at 23:00 UTC
Wind 3 kt from the South/Southeast
Temperature 18°C
Humidity 94%
Pressure 1015 hPa
Visibility 10 km or more
light drizzle

METAR: LFAQ 172300Z AUTO 15003KT 9999 -DZ FEW045/// BKN056/// OVC066/// ///CB 18/17 Q1015

Time: 01:24 (23:24 UTC)

Forecast

The report was made 9 hours and 24 minutes ago, at 14:00 UTC
Forecast valid from 17 at 15 UTC to 17 at 24 UTC
Wind 12 kt from the South/Southwest
Visibility 10 km or more
Broken clouds at a height of 2500 ft
Temporary
from 17 at 15 UTC to 17 at 24 UTC
Wind 15 kt from variable directions with gusts up to 25 kt
Visibility: 3000 m
Broken clouds at a height of 1300 ft
Broken clouds at a height of 2000 ft, Cumulonimbus.
rain showers

TAF: LFAQ 171400Z 1715/1724 20012KT 9999 BKN025 TEMPO 1715/1724 VRB15G25KT 3000 SHRA BKN013 BKN020CB

Weather observations and forecasts of more than 4000 airports (METAR and TAF reports).

The available stations are represented by yellow and red dots on the map.

Hover mouse over dot to see the name of the station.

Then click to see weather observations and forecasts.

To change the map : click on the green buttons with a black cross to zoom in, on the green button with a dash to zoom out, or on the green arrows for adjacent maps.


METAR-TAF: